KCDW/CDW METAR and TAF weather

Enter ICAO airport designator
Station Type Date Time Source
KCDW METAR 2019/06/16 12:53 UTC NOAA

KCDW 161253Z 00000KT 10SM CLR 21/18 A2990 RMK AO2 SLP130 T02110183


Station Type Date Time Source
KCDW Decoded METAR 2019/06/16 12:53 UTC NOAA

CALDWELL ESSEX COUNTY AIRPORT , NJ, United States (KCDW) 40-53N 074-17W 64M
Jun 16, 2019 - 08:53 AM EDT / 2019.06.16 1253 UTC
Wind: Calm:0
Visibility: 10 mile(s):0
Sky conditions: clear
Temperature: 70.0 F (21.1 C)
Dew Point: 64.9 F (18.3 C)
Relative Humidity: 84%
Pressure (altimeter): 29.9 in. Hg (1012 hPa)
ob: KCDW 161253Z 00000KT 10SM CLR 21/18 A2990 RMK AO2 SLP130 T02110183
cycle: 13

Station Type Date Time Source
KCDW TAF UTC NOAA

Error!

Example: see airport list